Time;durP1;ratioP1;P1;durP2;ratioP2;P2;SDS_P1;SDS_P2;PMS_P1;PMS_P2;Temp;Humidity;BMP_temperature;BMP_pressure;BME280_temperature;BME280_humidity;BME280_pressure;Samples;Min_cycle;Max_cycle;Signal;HPM_P1;HPM_P2
2022/04/20 00:02:13;;;;;;;6.75;4.00;;;8.10;99.20;;;;;;5041210;28;20060;-76
2022/04/20 00:04:39;;;;;;;6.18;3.85;;;8.00;99.30;;;;;;5042848;28;20045;-76
2022/04/20 00:07:05;;;;;;;5.68;4.00;;;8.00;99.40;;;;;;5043400;28;20033;-76
2022/04/20 00:09:30;;;;;;;5.22;3.67;;;7.90;99.30;;;;;;5041537;28;20100;-75
2022/04/20 00:11:56;;;;;;;7.63;4.25;;;7.90;99.10;;;;;;5044415;28;20053;-75
2022/04/20 00:14:22;;;;;;;6.03;4.07;;;7.90;99.10;;;;;;5044422;28;20095;-76
2022/04/20 00:16:47;;;;;;;6.57;4.00;;;7.90;99.20;;;;;;5044003;28;20076;-76
2022/04/20 00:19:13;;;;;;;7.25;4.03;;;7.90;99.30;;;;;;5042038;28;20060;-76
2022/04/20 00:21:38;;;;;;;7.50;4.18;;;7.70;99.40;;;;;;5044971;28;20037;-76
2022/04/20 00:24:04;;;;;;;6.53;4.50;;;7.70;99.40;;;;;;5042505;28;20129;-76
2022/04/20 00:26:30;;;;;;;7.95;4.32;;;7.70;99.70;;;;;;5041797;28;20042;-76
2022/04/20 00:28:55;;;;;;;8.50;4.80;;;7.60;99.90;;;;;;5042953;28;20462;-76
2022/04/20 00:31:21;;;;;;;5.53;4.15;;;7.60;99.90;;;;;;5041699;28;20038;-76
2022/04/20 00:33:46;;;;;;;8.25;3.97;;;7.50;99.90;;;;;;5043078;28;20121;-76
2022/04/20 00:36:12;;;;;;;7.38;4.32;;;7.50;99.90;;;;;;5042186;28;20044;-76
2022/04/20 00:38:38;;;;;;;5.47;4.00;;;7.40;99.90;;;;;;5043479;28;20083;-76
2022/04/20 00:41:04;;;;;;;5.95;4.20;;;7.40;99.90;;;;;;5041963;28;20069;-76
2022/04/20 00:43:29;;;;;;;6.53;4.45;;;7.30;99.90;;;;;;5026842;28;20037;-76
2022/04/20 00:45:57;;;;;;;5.85;4.45;;;7.30;99.90;;;;;;5026069;28;20037;-76
2022/04/20 00:48:23;;;;;;;6.63;4.45;;;7.10;99.90;;;;;;5040528;28;20104;-76
2022/04/20 00:50:48;;;;;;;7.20;4.15;;;7.20;99.90;;;;;;5043963;28;20037;-76
2022/04/20 00:53:14;;;;;;;6.45;4.43;;;7.10;99.90;;;;;;5044042;28;20049;-76
2022/04/20 00:55:39;;;;;;;8.40;4.40;;;7.10;99.90;;;;;;5041551;28;20065;-76
2022/04/20 00:58:05;;;;;;;6.75;4.40;;;7.00;99.90;;;;;;5039432;28;20101;-75
2022/04/20 01:00:31;;;;;;;6.68;4.18;;;7.00;99.90;;;;;;5043432;28;20037;-76
2022/04/20 01:02:57;;;;;;;7.43;4.35;;;7.00;99.90;;;;;;5042227;28;20072;-76
2022/04/20 01:05:22;;;;;;;6.60;4.07;;;6.90;99.90;;;;;;5038921;28;20064;-76
2022/04/20 01:07:49;;;;;;;5.97;4.50;;;6.90;99.90;;;;;;5042282;28;20037;-76
2022/04/20 01:10:15;;;;;;;8.30;4.32;;;6.90;99.90;;;;;;5039768;28;20041;-76
2022/04/20 01:12:45;;;;;;;7.50;4.35;;;6.90;99.90;;;;;;5045864;28;20050;-76
2022/04/20 01:15:12;;;;;;;6.90;4.55;;;6.90;99.90;;;;;;5045780;28;20042;-76
2022/04/20 01:17:38;;;;;;;7.38;4.57;;;6.90;99.90;;;;;;5046791;28;20045;-76
2022/04/20 01:20:12;;;;;;;6.55;4.15;;;6.90;99.90;;;;;;5045120;28;20038;-76
2022/04/20 01:22:38;;;;;;;6.57;4.32;;;6.90;99.90;;;;;;5040923;28;20403;-76
2022/04/20 01:25:04;;;;;;;6.88;4.55;;;6.80;99.90;;;;;;5046488;28;20072;-76
2022/04/20 01:27:29;;;;;;;9.02;4.75;;;6.80;99.90;;;;;;5046685;28;20072;-76
2022/04/20 01:29:55;;;;;;;8.35;3.88;;;6.80;99.90;;;;;;5045066;28;20049;-76
2022/04/20 01:32:20;;;;;;;5.90;4.55;;;6.70;99.90;;;;;;5028845;28;20045;-76
2022/04/20 01:34:46;;;;;;;6.00;4.30;;;6.70;99.90;;;;;;5044544;28;20407;-76
2022/04/20 01:37:11;;;;;;;7.88;4.72;;;6.70;99.90;;;;;;5045568;28;20092;-76
2022/04/20 01:39:37;;;;;;;6.00;4.28;;;6.70;99.90;;;;;;5045838;28;20330;-76
2022/04/20 01:42:03;;;;;;;8.45;5.07;;;6.70;99.90;;;;;;5044290;28;20037;-76
2022/04/20 01:44:28;;;;;;;6.78;4.88;;;6.70;99.90;;;;;;5047154;28;20041;-76
2022/04/20 01:46:54;;;;;;;7.68;4.18;;;6.60;99.90;;;;;;5048722;28;20041;-76
2022/04/20 01:49:19;;;;;;;7.07;4.75;;;6.60;99.90;;;;;;5044478;28;20044;-76
2022/04/20 01:51:50;;;;;;;8.23;4.90;;;6.60;99.90;;;;;;5043617;28;20037;-76
2022/04/20 01:54:17;;;;;;;8.95;5.07;;;6.50;99.90;;;;;;5044702;28;20523;-76
2022/04/20 01:56:42;;;;;;;6.38;4.40;;;6.60;99.90;;;;;;5048017;28;20515;-76
2022/04/20 01:59:09;;;;;;;6.05;4.50;;;6.50;99.90;;;;;;5044270;28;20021;-76
2022/04/20 02:04:20;;;;;;;6.72;4.78;;;6.40;99.90;;;;;;5045233;28;20102;-76
2022/04/20 02:06:45;;;;;;;10.63;5.05;;;6.40;99.90;;;;;;5046479;28;20045;-76
2022/04/20 02:09:11;;;;;;;8.70;5.05;;;6.40;99.90;;;;;;5045250;28;20558;-76
2022/04/20 02:11:36;;;;;;;8.93;5.18;;;6.40;99.90;;;;;;5026769;28;20049;-76
2022/04/20 02:14:02;;;;;;;7.15;5.38;;;6.40;99.90;;;;;;5045389;28;20089;-76
2022/04/20 02:16:28;;;;;;;7.70;5.18;;;6.40;99.90;;;;;;5023889;28;20040;-76
2022/04/20 02:18:53;;;;;;;8.98;5.15;;;6.30;99.90;;;;;;5040120;28;20499;-76
2022/04/20 02:21:19;;;;;;;9.40;5.60;;;6.30;99.90;;;;;;5024888;28;20494;-76
2022/04/20 02:23:44;;;;;;;8.48;4.60;;;6.20;99.90;;;;;;5046719;28;20096;-76
2022/04/20 02:26:10;;;;;;;10.80;6.13;;;6.20;99.90;;;;;;5044907;28;20045;-76
2022/04/20 02:28:35;;;;;;;7.07;4.88;;;6.20;99.90;;;;;;5043472;28;20041;-76
2022/04/20 02:31:01;;;;;;;6.53;4.80;;;6.20;99.90;;;;;;5044914;28;20045;-76
2022/04/20 02:33:27;;;;;;;6.20;4.60;;;6.30;99.90;;;;;;5045019;28;20045;-76
2022/04/20 02:35:52;;;;;;;6.78;4.82;;;6.30;99.90;;;;;;5045186;28;20050;-76
2022/04/20 02:38:19;;;;;;;6.18;4.65;;;6.20;99.90;;;;;;5046122;28;20057;-76
2022/04/20 02:40:49;;;;;;;7.78;5.47;;;6.30;99.90;;;;;;5042004;28;20033;-76
2022/04/20 02:43:14;;;;;;;7.13;5.05;;;6.20;99.90;;;;;;5045265;28;20037;-77
2022/04/20 02:45:40;;;;;;;7.93;5.47;;;6.20;99.90;;;;;;5045983;28;20064;-76
2022/04/20 02:48:06;;;;;;;8.85;5.43;;;6.20;99.90;;;;;;5046652;28;20052;-76
2022/04/20 02:50:32;;;;;;;8.63;5.10;;;6.30;99.90;;;;;;5044544;28;20045;-76
2022/04/20 02:52:57;;;;;;;8.10;4.93;;;6.30;99.90;;;;;;5047035;28;20416;-76
2022/04/20 02:55:23;;;;;;;9.73;5.10;;;6.20;99.90;;;;;;5043321;28;20468;-76
2022/04/20 02:57:49;;;;;;;6.10;4.65;;;6.20;99.90;;;;;;5044183;28;20060;-76
2022/04/20 03:00:16;;;;;;;7.38;4.90;;;6.30;99.90;;;;;;5043387;28;20098;-76
2022/04/20 03:02:41;;;;;;;11.35;5.22;;;6.20;99.90;;;;;;5042978;28;20099;-76
2022/04/20 03:05:10;;;;;;;8.25;5.45;;;6.20;99.90;;;;;;5074140;22;20049;-74
2022/04/20 03:07:36;;;;;;;7.75;4.85;;;6.10;99.90;;;;;;5018626;28;20045;-74
2022/04/20 03:10:03;;;;;;;7.78;4.75;;;6.10;99.90;;;;;;5016693;28;20379;-74
2022/04/20 03:12:31;;;;;;;7.72;5.10;;;6.20;99.90;;;;;;5009246;28;20490;-75
2022/04/20 03:14:57;;;;;;;6.00;4.38;;;6.10;99.90;;;;;;5016315;28;20071;-75
2022/04/20 03:17:23;;;;;;;7.35;4.88;;;6.10;99.90;;;;;;4998558;28;20507;-74
2022/04/20 03:19:50;;;;;;;7.53;5.03;;;6.20;99.90;;;;;;5001750;28;20048;-74
2022/04/20 03:22:16;;;;;;;8.20;5.38;;;6.20;99.90;;;;;;4982443;28;20068;-74
2022/04/20 03:24:41;;;;;;;7.18;4.93;;;6.20;99.90;;;;;;5006239;28;20095;-74
2022/04/20 03:27:07;;;;;;;7.43;5.28;;;6.20;99.90;;;;;;4998272;28;20053;-74
2022/04/20 03:29:34;;;;;;;10.15;5.10;;;6.10;99.90;;;;;;4995890;28;20089;-74
2022/04/20 03:32:05;;;;;;;8.38;5.28;;;6.10;99.90;;;;;;5007005;28;20406;-74
2022/04/20 03:34:33;;;;;;;7.95;5.20;;;6.10;99.90;;;;;;5006035;28;20379;-74
2022/04/20 03:37:01;;;;;;;8.57;5.25;;;6.10;99.90;;;;;;4997505;28;20671;-74
2022/04/20 03:39:27;;;;;;;8.68;5.05;;;6.00;99.90;;;;;;4996964;28;20129;-74
2022/04/20 03:41:53;;;;;;;7.03;5.20;;;6.00;99.90;;;;;;5005607;28;20470;-74
2022/04/20 03:44:18;;;;;;;7.55;5.03;;;5.90;99.90;;;;;;5001037;28;20036;-74
2022/04/20 03:46:44;;;;;;;8.00;5.60;;;5.90;99.90;;;;;;5003463;28;20033;-74
2022/04/20 03:49:10;;;;;;;11.48;5.85;;;5.80;99.90;;;;;;4995581;28;20049;-74
2022/04/20 03:51:39;;;;;;;6.28;4.70;;;5.80;99.90;;;;;;5005843;28;20503;-74
2022/04/20 03:54:05;;;;;;;8.25;5.32;;;5.80;99.90;;;;;;4997866;28;20048;-74
2022/04/20 03:57:03;;;;;;;9.02;6.00;;;5.70;99.90;;;;;;4997924;28;20042;-74
2022/04/20 03:59:16;;;;;;;7.60;5.13;;;5.70;99.90;;;;;;5017408;28;20037;-74
2022/04/20 04:01:42;;;;;;;7.68;5.43;;;5.70;99.90;;;;;;4990808;28;20403;-74
2022/04/20 04:04:08;;;;;;;8.90;5.78;;;5.60;99.90;;;;;;4997622;28;20037;-74
2022/04/20 04:06:34;;;;;;;7.47;5.28;;;5.60;99.90;;;;;;4996430;28;20112;-75
2022/04/20 04:09:00;;;;;;;6.90;5.18;;;5.60;99.90;;;;;;5005603;28;20041;-74
2022/04/20 04:11:26;;;;;;;8.27;5.47;;;5.50;99.90;;;;;;5009022;28;20091;-75
2022/04/20 04:13:51;;;;;;;9.57;5.47;;;5.60;99.90;;;;;;5013727;28;20657;-74
2022/04/20 04:16:17;;;;;;;7.68;5.10;;;5.50;99.90;;;;;;4996867;28;20041;-75
2022/04/20 04:18:43;;;;;;;8.30;5.63;;;5.40;99.90;;;;;;4995608;28;20073;-76
2022/04/20 04:21:08;;;;;;;9.20;5.90;;;5.40;99.90;;;;;;5005249;28;20040;-74
2022/04/20 04:23:34;;;;;;;8.80;5.72;;;5.40;99.90;;;;;;4997253;28;20563;-75
2022/04/20 04:26:00;;;;;;;11.43;5.90;;;5.40;99.90;;;;;;4996935;28;20044;-74
2022/04/20 04:28:26;;;;;;;9.45;5.68;;;5.40;99.90;;;;;;5001667;28;20055;-74
2022/04/20 04:30:52;;;;;;;7.68;5.50;;;5.40;99.90;;;;;;5006710;28;20045;-74
2022/04/20 04:33:18;;;;;;;9.30;5.65;;;5.30;99.90;;;;;;5009131;28;20051;-74
2022/04/20 04:35:44;;;;;;;8.60;5.47;;;5.30;99.90;;;;;;5006847;28;20033;-75
2022/04/20 04:38:10;;;;;;;9.57;5.95;;;5.30;99.90;;;;;;5008664;28;20044;-75
2022/04/20 04:40:35;;;;;;;10.13;5.97;;;5.20;99.90;;;;;;5007430;28;20037;-75
2022/04/20 04:43:01;;;;;;;7.13;5.70;;;5.20;99.90;;;;;;4997176;28;20514;-75
2022/04/20 04:50:59;;;;;;;8.50;5.82;;;5.20;99.90;;;;;;5018006;28;20475;-74
2022/04/20 04:53:24;;;;;;;7.55;5.75;;;5.20;99.90;;;;;;4999638;28;20132;-75
2022/04/20 04:55:50;;;;;;;8.75;5.47;;;5.20;99.90;;;;;;4999224;28;20034;-75
2022/04/20 04:58:18;;;;;;;9.05;5.90;;;5.20;99.90;;;;;;5012702;28;20398;-74
2022/04/20 05:00:44;;;;;;;8.70;5.47;;;5.20;99.90;;;;;;5002093;28;20048;-75
2022/04/20 05:03:10;;;;;;;9.32;6.10;;;5.20;99.90;;;;;;5002311;28;20127;-75
2022/04/20 05:05:37;;;;;;;8.57;5.72;;;5.20;99.90;;;;;;5007488;28;20507;-75
2022/04/20 05:08:03;;;;;;;8.70;6.50;;;5.20;99.90;;;;;;5008233;28;20038;-75
2022/04/20 05:10:29;;;;;;;9.52;5.53;;;5.20;99.90;;;;;;5000975;28;20037;-75
2022/04/20 05:12:55;;;;;;;9.32;6.13;;;5.20;99.90;;;;;;5000381;28;20033;-74
2022/04/20 05:15:21;;;;;;;8.02;5.75;;;5.30;99.90;;;;;;5006931;28;20041;-75
2022/04/20 05:17:50;;;;;;;9.60;5.90;;;5.40;99.90;;;;;;5000121;28;20056;-74
2022/04/20 05:20:19;;;;;;;8.23;5.90;;;5.40;99.90;;;;;;4991433;28;20037;-75
2022/04/20 05:22:45;;;;;;;10.68;6.75;;;5.50;99.90;;;;;;5006182;28;20096;-75
2022/04/20 05:25:11;;;;;;;7.82;5.80;;;5.50;99.90;;;;;;4999218;28;20119;-75
2022/04/20 05:27:36;;;;;;;7.78;6.13;;;5.60;99.90;;;;;;5014966;28;20611;-75
2022/04/20 05:30:07;;;;;;;9.20;5.80;;;5.60;99.90;;;;;;5016971;28;20076;-75
2022/04/20 05:32:33;;;;;;;8.95;5.82;;;5.70;99.90;;;;;;4997455;28;20033;-75
2022/04/20 05:34:59;;;;;;;9.25;7.13;;;5.80;99.90;;;;;;4999311;28;20041;-75
2022/04/20 05:42:54;;;;;;;8.43;6.20;;;6.00;99.90;;;;;;5019711;28;20100;-75
2022/04/20 05:45:20;;;;;;;8.43;6.38;;;6.10;99.90;;;;;;4997596;28;20054;-74
2022/04/20 05:47:46;;;;;;;9.27;5.78;;;6.10;99.90;;;;;;5007489;28;20127;-75
2022/04/20 05:50:13;;;;;;;10.00;6.65;;;6.20;99.90;;;;;;5019528;28;20040;-75
2022/04/20 05:52:39;;;;;;;7.93;5.57;;;6.20;99.90;;;;;;5004937;28;20049;-76
2022/04/20 05:55:05;;;;;;;9.85;6.15;;;6.30;99.90;;;;;;4992017;28;20099;-76
2022/04/20 05:57:33;;;;;;;8.90;6.30;;;6.30;99.90;;;;;;4997557;28;20568;-75
2022/04/20 05:59:59;;;;;;;10.43;5.57;;;6.40;99.90;;;;;;5007405;28;20052;-74
2022/04/20 06:02:26;;;;;;;8.07;5.75;;;6.50;99.90;;;;;;4999813;28;20071;-75
2022/04/20 06:04:52;;;;;;;8.50;5.72;;;6.60;99.90;;;;;;5015126;28;20038;-75
2022/04/20 06:07:18;;;;;;;10.98;6.20;;;6.60;99.90;;;;;;5023119;28;20491;-74
2022/04/20 06:09:44;;;;;;;8.60;5.65;;;6.70;99.90;;;;;;4997552;28;20095;-75
2022/04/20 06:12:10;;;;;;;9.50;5.97;;;6.80;99.90;;;;;;5007948;28;20053;-75
2022/04/20 06:14:36;;;;;;;8.20;6.38;;;6.80;99.90;;;;;;4998033;28;20507;-75
2022/04/20 06:17:02;;;;;;;8.70;5.93;;;6.90;99.90;;;;;;5000048;28;20495;-74
2022/04/20 06:19:28;;;;;;;9.75;6.00;;;7.00;99.90;;;;;;5019029;28;20090;-75
2022/04/20 06:21:56;;;;;;;13.10;6.40;;;7.10;99.90;;;;;;5006703;28;20124;-75
2022/04/20 06:24:22;;;;;;;7.40;5.40;;;7.20;99.90;;;;;;4998750;28;20041;-75
2022/04/20 06:26:48;;;;;;;8.38;6.03;;;7.30;99.90;;;;;;5006889;28;20442;-75
2022/04/20 06:29:13;;;;;;;8.57;5.95;;;7.40;99.90;;;;;;5013895;28;20037;-74
2022/04/20 06:31:44;;;;;;;7.45;5.00;;;7.50;99.90;;;;;;5005669;28;20033;-75
2022/04/20 06:34:10;;;;;;;9.10;5.80;;;7.60;99.90;;;;;;5010377;28;20049;-74
2022/04/20 06:36:39;;;;;;;7.53;5.55;;;7.70;99.90;;;;;;5005220;28;20140;-75
2022/04/20 06:39:06;;;;;;;7.55;5.28;;;7.70;99.90;;;;;;4993548;28;20037;-76
2022/04/20 06:41:32;;;;;;;8.93;5.10;;;7.90;99.90;;;;;;4996306;28;20456;-76
2022/04/20 06:44:04;;;;;;;8.00;4.97;;;8.00;99.90;;;;;;5019203;28;20084;-76
2022/04/20 06:46:33;;;;;;;8.15;5.43;;;8.10;99.90;;;;;;5007248;28;20492;-76
2022/04/20 06:49:06;;;;;;;7.07;5.10;;;8.40;99.90;;;;;;5012163;28;20038;-76
2022/04/20 07:00:06;;;;;;;6.55;4.38;;;8.70;96.90;;;;;;5004720;28;20038;-76
2022/04/20 07:02:35;;;;;;;7.30;5.13;;;8.90;96.00;;;;;;4998093;28;20128;-76
2022/04/20 07:05:10;;;;;;;6.72;4.65;;;8.90;95.30;;;;;;5016313;28;20375;-76
2022/04/20 07:07:39;;;;;;;5.60;4.50;;;9.00;95.00;;;;;;5018226;28;20119;-76
2022/04/20 07:10:10;;;;;;;6.65;4.93;;;9.10;93.80;;;;;;5018160;28;20171;-76
2022/04/20 07:12:44;;;;;;;6.95;4.40;;;9.20;94.20;;;;;;5018459;28;20041;-76
2022/04/20 07:15:10;;;;;;;7.00;4.40;;;9.20;93.90;;;;;;5002729;28;20029;-76
2022/04/20 07:17:43;;;;;;;6.38;4.68;;;9.30;94.30;;;;;;4997227;28;20045;-76
2022/04/20 07:20:17;;;;;;;9.48;4.45;;;9.50;93.00;;;;;;5012767;28;20038;-76
2022/04/20 07:22:55;;;;;;;8.15;4.60;;;9.50;92.70;;;;;;4997555;28;20503;-76
2022/04/20 07:25:26;;;;;;;6.03;4.30;;;9.70;90.80;;;;;;4997770;28;20045;-77
2022/04/20 07:27:57;;;;;;;8.13;4.78;;;9.80;90.70;;;;;;4999251;28;20049;-76
2022/04/20 07:30:33;;;;;;;7.05;4.32;;;9.80;91.40;;;;;;4997678;28;20041;-77
2022/04/20 07:33:21;;;;;;;5.93;4.03;;;9.90;91.50;;;;;;4999800;28;20052;-77
2022/04/20 07:35:56;;;;;;;7.13;4.35;;;10.10;86.10;;;;;;5002460;28;20120;-77
2022/04/20 07:38:33;;;;;;;4.65;3.65;;;10.20;84.10;;;;;;4990825;28;20495;-77
2022/04/20 07:41:05;;;;;;;5.57;3.80;;;10.30;82.70;;;;;;5006339;28;20042;-76
2022/04/20 07:43:40;;;;;;;5.73;4.10;;;10.30;85.50;;;;;;4999118;28;20075;-76
2022/04/20 07:46:20;;;;;;;4.53;3.70;;;10.50;84.30;;;;;;5006683;28;20052;-77
2022/04/20 07:48:46;;;;;;;5.00;3.55;;;10.60;80.30;;;;;;5006995;28;20418;-77
2022/04/20 07:51:17;;;;;;;4.00;2.90;;;10.70;79.20;;;;;;4997675;28;20037;-77
2022/04/20 07:53:43;;;;;;;4.30;3.38;;;10.80;73.40;;;;;;5014070;28;20041;-77
2022/04/20 07:56:12;;;;;;;4.85;3.33;;;10.90;73.40;;;;;;5009081;28;20033;-76
2022/04/20 07:58:42;;;;;;;5.22;3.03;;;10.90;73.30;;;;;;5005538;28;20128;-77
2022/04/20 08:01:14;;;;;;;5.72;2.53;;;11.00;68.10;;;;;;4995254;28;20033;-76
2022/04/20 08:03:42;;;;;;;4.47;3.00;;;11.10;64.30;;;;;;4997564;28;20045;-78
2022/04/20 08:06:08;;;;;;;4.10;2.47;;;11.20;62.80;;;;;;4998983;28;20040;-77
2022/04/20 08:08:40;;;;;;;3.15;2.45;;;11.30;62.40;;;;;;5004785;28;20085;-77
2022/04/20 08:11:24;;;;;;;2.95;2.10;;;11.30;62.60;;;;;;5008738;28;20483;-79
2022/04/20 08:14:13;;;;;;;3.33;2.28;;;11.50;59.10;;;;;;5005282;28;20037;-77
2022/04/20 08:16:51;;;;;;;3.72;1.98;;;11.60;56.60;;;;;;5003177;28;20042;-78
2022/04/20 08:19:26;;;;;;;2.58;1.83;;;11.60;56.20;;;;;;4997949;28;20373;-78
2022/04/20 08:22:12;;;;;;;2.75;2.08;;;11.70;55.50;;;;;;5020146;28;20121;-77
2022/04/20 08:24:45;;;;;;;3.13;2.00;;;11.70;56.80;;;;;;4995178;28;20476;-77
2022/04/20 08:27:16;;;;;;;4.35;1.90;;;12.00;55.60;;;;;;5000159;28;20037;-78
2022/04/20 08:29:46;;;;;;;3.08;2.35;;;12.60;54.40;;;;;;5013603;28;20377;-79
2022/04/20 08:32:12;;;;;;;3.70;2.22;;;13.30;53.70;;;;;;4998199;28;20562;-78
2022/04/20 08:34:38;;;;;;;2.28;1.98;;;13.90;52.30;;;;;;4997676;28;20037;-77
2022/04/20 08:37:04;;;;;;;3.22;2.40;;;14.30;51.80;;;;;;4999665;28;20392;-77
2022/04/20 08:39:31;;;;;;;5.00;2.45;;;14.80;48.80;;;;;;5002141;28;20033;-79
2022/04/20 08:42:11;;;;;;;4.70;2.70;;;15.00;50.20;;;;;;5009934;28;20044;-79
2022/04/20 08:44:43;;;;;;;4.82;2.70;;;15.30;50.10;;;;;;4988962;28;20479;-78
2022/04/20 08:47:22;;;;;;;4.10;2.50;;;15.50;48.00;;;;;;5008623;28;20041;-79
2022/04/20 08:49:55;;;;;;;4.10;2.92;;;15.70;47.40;;;;;;5017009;28;20033;-78
2022/04/20 08:52:39;;;;;;;5.35;2.65;;;15.90;49.10;;;;;;5015669;28;20415;-79
2022/04/20 08:55:17;;;;;;;4.15;2.75;;;16.00;48.30;;;;;;5007235;28;20391;-78
2022/04/20 08:57:47;;;;;;;3.05;2.20;;;16.20;48.90;;;;;;5002633;28;20053;-78
2022/04/20 09:00:22;;;;;;;4.18;2.28;;;16.60;46.70;;;;;;4997679;28;20102;-78
2022/04/20 09:02:56;;;;;;;3.47;2.47;;;16.60;46.00;;;;;;4998111;28;20488;-78
2022/04/20 09:05:27;;;;;;;3.58;2.40;;;16.60;46.00;;;;;;4995251;28;20511;-77
2022/04/20 09:07:56;;;;;;;3.25;2.45;;;16.60;46.30;;;;;;5005624;28;20105;-77
2022/04/20 09:10:38;;;;;;;4.18;2.30;;;16.80;45.90;;;;;;5015884;28;20499;-77
2022/04/20 09:13:32;;;;;;;4.15;2.75;;;16.70;46.80;;;;;;5016951;28;20194;-77
2022/04/20 09:16:13;;;;;;;4.10;2.70;;;16.70;47.40;;;;;;5006369;28;20060;-77
2022/04/20 09:18:46;;;;;;;3.92;2.95;;;16.80;46.90;;;;;;5001981;28;20384;-77
2022/04/20 09:21:15;;;;;;;;;;;17.10;45.20;;;;;;5004826;28;20055;-77
2022/04/20 09:23:45;;;;;;;4.15;2.60;;;17.20;44.50;;;;;;5011373;28;19917;-77
2022/04/20 09:26:13;;;;;;;4.72;2.55;;;17.00;45.60;;;;;;4997814;28;20407;-77
2022/04/20 09:29:08;;;;;;;3.13;2.30;;;17.10;46.10;;;;;;4996243;28;20664;-76
2022/04/20 09:31:44;;;;;;;3.30;1.92;;;17.30;44.80;;;;;;4999438;28;20359;-77
2022/04/20 09:34:54;;;;;;;3.17;2.20;;;17.50;42.40;;;;;;5009894;28;20041;-77
2022/04/20 09:37:32;;;;;;;3.10;2.20;;;17.60;40.70;;;;;;5005311;28;20041;-75
2022/04/20 09:40:04;;;;;;;2.20;1.80;;;17.30;42.20;;;;;;5020358;28;20038;-75
2022/04/20 09:43:04;;;;;;;2.70;1.90;;;17.50;40.60;;;;;;5019073;28;20045;-76
2022/04/20 09:49:09;;;;;;;2.15;1.80;;;17.40;39.40;;;;;;5007410;28;20064;-75
2022/04/20 09:51:44;;;;;;;2.45;2.05;;;17.30;41.20;;;;;;5007859;28;20549;-75
2022/04/20 09:54:29;;;;;;;3.75;2.28;;;17.30;42.20;;;;;;5007346;28;20935;-77
2022/04/20 09:57:16;;;;;;;2.92;2.10;;;17.40;43.10;;;;;;5012621;28;20068;-76
2022/04/20 10:00:16;;;;;;;2.95;2.17;;;17.70;42.00;;;;;;5030867;28;20403;-76
2022/04/20 10:03:07;;;;;;;3.78;2.03;;;17.80;39.90;;;;;;5013193;28;20076;-75
2022/04/20 10:05:33;;;;;;;5.78;2.47;;;17.80;40.50;;;;;;4993010;28;20480;-76
2022/04/20 10:08:05;;;;;;;4.70;2.20;;;17.80;41.30;;;;;;5000047;28;20128;-78
2022/04/20 10:10:35;;;;;;;3.40;2.50;;;18.10;41.40;;;;;;5002992;28;20402;-77
2022/04/20 10:13:07;;;;;;;2.83;1.92;;;18.30;41.20;;;;;;5007126;28;20053;-75
2022/04/20 10:18:29;;;;;;;3.17;2.17;;;18.70;39.40;;;;;;5007674;28;20046;-77
2022/04/20 10:21:06;;;;;;;3.40;2.17;;;18.70;37.80;;;;;;5005847;28;20470;-76
2022/04/20 10:23:38;;;;;;;3.72;2.10;;;18.60;39.10;;;;;;5013190;28;20041;-77
2022/04/20 10:26:11;;;;;;;3.55;2.83;;;18.50;38.90;;;;;;5005926;28;20060;-78
2022/04/20 10:28:55;;;;;;;2.85;2.30;;;18.40;39.30;;;;;;5003924;28;20143;-77
2022/04/20 10:31:52;;;;;;;4.63;2.15;;;18.30;39.00;;;;;;5008599;28;20045;-76
2022/04/20 10:34:19;;;;;;;3.28;2.50;;;18.30;39.90;;;;;;4999559;28;20090;-76
2022/04/20 10:37:21;;;;;;;3.30;2.20;;;18.40;40.10;;;;;;5002450;28;20268;-77
2022/04/20 10:40:43;;;;;;;2.72;2.13;;;18.70;38.50;;;;;;5014411;28;20073;-76
2022/04/20 10:43:26;;;;;;;6.30;4.35;;;18.90;37.90;;;;;;4997338;28;20046;-76
2022/04/20 10:46:29;;;;;;;3.40;2.60;;;18.90;39.40;;;;;;4973734;28;20143;-77
2022/04/20 10:49:17;;;;;;;4.40;2.40;;;18.90;38.60;;;;;;5020489;28;20041;-77
2022/04/20 10:51:51;;;;;;;3.28;1.92;;;18.70;39.40;;;;;;5010406;28;20049;-76
2022/04/20 10:54:17;;;;;;;4.22;2.30;;;18.50;40.70;;;;;;5012276;28;20046;-76
2022/04/20 10:57:12;;;;;;;2.42;2.15;;;18.80;41.10;;;;;;4998141;28;20042;-78
2022/04/20 11:00:24;;;;;;;2.85;2.20;;;19.20;39.30;;;;;;4984944;28;20056;-78
2022/04/20 11:03:09;;;;;;;2.60;1.98;;;19.20;39.90;;;;;;5007512;28;20453;-78
2022/04/20 11:05:57;;;;;;;3.60;2.25;;;19.30;39.00;;;;;;5011162;28;20049;-79
2022/04/20 11:08:36;;;;;;;3.50;2.08;;;19.60;38.00;;;;;;5004209;28;20038;-79
2022/04/20 11:20:00;;;;;;;4.22;2.50;;;19.60;38.80;;;;;;4997113;28;20513;-79
2022/04/20 11:22:43;;;;;;;3.72;2.15;;;19.60;39.00;;;;;;4999159;28;20088;-78
2022/04/20 11:25:19;;;;;;;3.88;2.25;;;19.60;40.50;;;;;;5006378;28;20085;-77
2022/04/20 11:28:21;;;;;;;2.47;2.05;;;19.90;39.90;;;;;;5000067;28;20069;-79
2022/04/20 11:31:21;;;;;;;3.03;2.40;;;20.10;38.80;;;;;;5005944;28;20077;-79
2022/04/20 11:34:11;;;;;;;4.97;2.88;;;19.90;39.10;;;;;;5003596;28;20045;-80
2022/04/20 11:37:14;;;;;;;4.60;2.63;;;19.90;39.00;;;;;;5002796;28;20052;-80
2022/04/20 11:40:23;;;;;;;3.97;2.50;;;19.70;38.80;;;;;;5034712;28;20064;-80
2022/04/20 11:43:27;;;;;;;2.67;2.47;;;19.60;40.40;;;;;;4992840;28;20116;-79
2022/04/20 11:46:51;;;;;;;5.07;2.45;;;19.90;40.50;;;;;;5002008;28;20113;-79
2022/04/20 11:50:12;;;;;;;3.03;2.47;;;20.20;38.90;;;;;;4999872;28;20077;-79
2022/04/20 11:52:40;;;;;;;2.72;2.33;;;20.40;39.00;;;;;;4961817;28;20053;-78
2022/04/20 11:55:15;;;;;;;3.15;2.70;;;20.50;39.00;;;;;;4998997;28;20041;-80
2022/04/20 11:58:30;;;;;;;;;;;;;;;;;;;;;
2022/04/20 12:04:31;;;;;;;3.55;2.65;;;20.10;39.50;;;;;;4966956;28;20442;-78
2022/04/20 12:07:23;;;;;;;3.40;2.83;;;20.30;39.40;;;;;;4998632;28;20491;-79
2022/04/20 12:10:09;;;;;;;4.18;2.50;;;20.80;38.50;;;;;;5001552;28;20029;-79
2022/04/20 12:13:28;;;;;;;4.00;2.97;;;20.90;37.60;;;;;;5023142;28;20423;-79
2022/04/20 12:17:21;;;;;;;5.10;2.72;;;20.80;38.70;;;;;;5027596;28;20044;-78
2022/04/20 12:20:37;;;;;;;2.97;2.45;;;20.70;39.30;;;;;;5018597;28;20128;-79
2022/04/20 12:23:33;;;;;;;4.10;2.67;;;21.00;38.60;;;;;;4998320;28;20045;-79
2022/04/20 12:29:58;;;;;;;3.42;2.40;;;21.20;38.70;;;;;;4966256;28;20041;-79
2022/04/20 12:32:40;;;;;;;3.15;2.50;;;21.10;37.70;;;;;;4988116;28;20128;-79
2022/04/20 12:41:52;;;;;;;4.97;2.50;;;21.40;37.00;;;;;;5001466;28;20045;-79
2022/04/20 12:48:47;;;;;;;3.65;2.53;;;21.30;36.40;;;;;;4972070;28;20106;-79
2022/04/20 12:51:46;;;;;;;3.80;1.92;;;21.40;37.60;;;;;;4939109;28;20047;-80
2022/04/20 12:54:47;;;;;;;3.67;2.00;;;21.80;37.50;;;;;;4994088;28;20128;-79
2022/04/20 13:04:56;;;;;;;3.42;1.90;;;21.70;34.80;;;;;;4951025;28;20050;-79
2022/04/20 13:07:54;;;;;;;2.65;2.05;;;21.30;35.50;;;;;;4986901;28;20050;-79
2022/04/20 13:10:40;;;;;;;2.67;2.05;;;21.10;35.30;;;;;;4976206;28;20061;-79
2022/04/20 13:13:49;;;;;;;2.42;1.80;;;21.30;37.00;;;;;;4995894;28;20503;-79
2022/04/20 13:16:27;;;;;;;3.03;1.92;;;21.10;36.40;;;;;;4997430;28;20088;-78
2022/04/20 13:19:27;;;;;;;4.68;1.73;;;21.10;36.10;;;;;;4995851;28;20046;-78
2022/04/20 13:22:10;;;;;;;3.25;1.70;;;21.30;35.10;;;;;;4965462;28;20045;-78
2022/04/20 13:31:15;;;;;;;4.63;2.00;;;22.20;34.80;;;;;;5008766;28;20041;-79
2022/04/20 13:33:51;;;;;;;2.08;1.77;;;21.70;33.60;;;;;;4996837;28;20103;-78
2022/04/20 13:42:42;;;;;;;;;;;;;;;;;;;;;
2022/04/20 13:45:25;;;;;;;2.80;2.03;;;21.10;35.10;;;;;;5008055;28;20083;-78
2022/04/20 13:48:04;;;;;;;2.75;2.10;;;20.90;35.90;;;;;;4999497;28;20044;-80
2022/04/20 13:50:47;;;;;;;2.40;2.20;;;21.00;35.70;;;;;;5002091;28;20049;-79
2022/04/20 13:53:55;;;;;;;4.60;2.00;;;21.00;36.10;;;;;;5001796;28;20053;-79
2022/04/20 13:56:57;;;;;;;3.55;2.50;;;21.00;36.90;;;;;;4999566;28;20103;-79
2022/04/20 13:59:29;;;;;;;3.28;2.35;;;21.10;37.60;;;;;;5000717;28;20111;-79
2022/04/20 14:05:35;;;;;;;3.08;2.60;;;21.40;37.10;;;;;;5032231;22;20053;-78
2022/04/20 14:08:22;;;;;;;3.88;2.60;;;21.40;37.30;;;;;;5053971;28;20057;-79
2022/04/20 14:11:04;;;;;;;5.97;2.97;;;21.30;36.80;;;;;;5054152;28;20041;-80
2022/04/20 14:13:41;;;;;;;4.95;2.70;;;21.20;37.00;;;;;;5063099;28;20060;-79
2022/04/20 14:16:27;;;;;;;3.55;2.92;;;20.90;37.30;;;;;;5054564;28;20049;-79
2022/04/20 14:19:05;;;;;;;3.92;3.10;;;20.50;37.40;;;;;;5052446;28;20103;-78
2022/04/20 14:21:42;;;;;;;3.40;3.00;;;20.40;38.80;;;;;;5054800;28;20033;-78
2022/04/20 14:24:25;;;;;;;4.00;2.83;;;20.60;39.30;;;;;;5050658;28;20037;-78
2022/04/20 14:33:07;;;;;;;4.32;3.50;;;20.40;38.60;;;;;;5036913;28;20037;-79
2022/04/20 14:35:49;;;;;;;;;;;;;;;;;;;;;
2022/04/20 14:38:25;;;;;;;5.28;3.15;;;19.70;39.40;;;;;;5043728;28;20124;-79
2022/04/20 14:40:52;;;;;;;;;;;19.40;40.20;;;;;;5020204;28;20052;-79
2022/04/20 14:43:27;;;;;;;7.80;3.78;;;19.00;40.70;;;;;;5048192;28;19978;-79
2022/04/20 14:46:28;;;;;;;3.70;2.80;;;18.80;41.40;;;;;;5032447;28;20037;-78
2022/04/20 14:48:58;;;;;;;4.63;3.10;;;18.70;41.80;;;;;;5039921;28;20045;-80
2022/04/20 14:51:47;;;;;;;;;;;;;;;;;;;;;
2022/04/20 14:54:35;;;;;;;4.82;3.17;;;18.70;42.00;;;;;;5039313;28;20041;-79
2022/04/20 14:57:10;;;;;;;5.47;3.75;;;18.50;42.20;;;;;;5033275;28;20049;-78
2022/04/20 14:59:39;;;;;;;4.30;3.22;;;18.50;42.20;;;;;;5052818;28;20045;-78